Aeroporto :
LOGIN :

Iscrizione | Disclaimer

   EN    FR    IT 

 










Sommario :    VFR   VFR Marginale   IFR   IFR Intensivo   IFR Molto Intensivo
Visibilità : 
Base nubi : 
>= 8 km
>= 3000ft
5 / 8 km
1000 / 3000 ft
1500m / 5 km
500 / 1000 ft
800 / 1500m
200 / 500 ft
< 800m
< 200 ft
Simboli :   Temporali  Nebbia  Neve Forte  Precipitazioni Forti  Vento > 20 kt
SIGMETs :   Varie  Temporali  Ghiacco  Turbolenza  Onda orograficha  Ceneri Vulcaniche






- Altitudine del aeroporto : 171 ft
- Codice IATA : EGC


LFBE - Bergerac

ULTIMO METAR :
  • 190300Z AUTO VRB02KT 8000 FEW023 03/02 Q1032

METARs OBSOLETI :
  • 190230Z AUTO 24005KT 9999 SCT031 BKN040 BKN047 06/06 Q1032
  • 190200Z AUTO VRB02KT 9999 FEW026 SCT040 BKN049 02/02 Q1032
  • 190130Z AUTO VRB01KT 9999 FEW030 SCT039 02/01 Q1032
  • 190100Z AUTO VRB02KT 9999 FEW029 02/01 Q1032
  • 190030Z AUTO VRB02KT CAVOK 02/01 Q1032

TAF TAF LFBE
Valido dal 18 a 18 ore il 19 a 18 ore UTC


181700Z 1818/1918 26008KT 9999 BKN040
PROB30
TEMPO 1818/1820 6000 -SHRA FEW030TCU BKN040
PROB30
TEMPO 1905/1910 4000 BR BKN008



MetMap, La meteo Aeronautica in un colpo d'occhio ! - Copyright ORBIFLY Dicembre 2007 - Disclaimer

ORBIFLY MET'MAP TEAM :

Programmazione e sviluppo : Alexandra Zaïnal
Concezione : Baudouin d'Aumeries
Aiuto per la programmazione : Marc-Olivier Méhu
Supporto tecnico e logistico : Manuel Goepfert
Aiuto per la traduzione : Arnaldo La Scala

Contatto : metmap@orbifly.com




FONTI E CREDITI :

   NOAA